Time;durP1;ratioP1;P1;durP2;ratioP2;P2;SDS_P1;SDS_P2;PMS_P1;PMS_P2;Temp;Humidity;BMP_temperature;BMP_pressure;BME280_temperature;BME280_humidity;BME280_pressure;Samples;Min_cycle;Max_cycle;Signal;HPM_P1;HPM_P2
2022/01/28 00:00:31;;;;;;;0.40;0.30;;;;;;;5.98;80.66;100803.66;5032952;28;20505;-71
2022/01/28 00:03:03;;;;;;;0.40;0.20;;;;;;;5.93;81.15;100800.13;5033063;28;20489;-71
2022/01/28 00:05:29;;;;;;;0.40;0.30;;;;;;;5.93;81.69;100806.34;5033019;28;20435;-71
2022/01/28 00:07:57;;;;;;;0.40;0.20;;;;;;;5.96;81.99;100808.47;5032696;28;20467;-72
2022/01/28 00:10:25;;;;;;;0.40;0.20;;;;;;;5.97;81.96;100803.91;5032894;28;20536;-74
2022/01/28 00:15:42;;;;;;;0.40;0.20;;;;;;;5.95;81.02;100827.56;5032784;28;20458;-71
2022/01/28 00:18:33;;;;;;;0.40;0.20;;;;;;;5.99;81.41;100823.28;5032942;28;20436;-72
2022/01/28 00:37:48;;;;;;;0.40;0.23;;;;;;;5.99;81.97;100837.53;5032610;28;20443;-72
2022/01/28 00:40:14;;;;;;;0.40;0.30;;;;;;;5.94;82.39;100823.28;5032234;28;20469;-71
2022/01/28 00:42:41;;;;;;;0.40;0.30;;;;;;;5.91;82.48;100821.88;5032266;28;20995;-72
2022/01/28 00:45:08;;;;;;;0.40;0.20;;;;;;;5.89;83.14;100818.66;5032619;28;20450;-73
2022/01/28 00:47:35;;;;;;;0.40;0.20;;;;;;;5.87;82.77;100833.41;5032565;28;20449;-72
2022/01/28 00:50:01;;;;;;;0.40;0.30;;;;;;;5.90;83.57;100847.16;5032556;28;20542;-72
2022/01/28 00:52:27;;;;;;;0.40;0.30;;;;;;;5.82;83.44;100851.16;5032561;28;20447;-73
2022/01/28 00:54:54;;;;;;;0.40;0.30;;;;;;;5.82;83.83;100853.03;5032302;28;20941;-72
2022/01/28 00:57:22;;;;;;;0.40;0.20;;;;;;;5.88;83.01;100846.59;5033229;28;20447;-72
2022/01/28 00:59:48;;;;;;;0.40;0.30;;;;;;;5.86;83.00;100858.69;5035937;28;20466;-72
2022/01/28 01:02:15;;;;;;;0.40;0.20;;;;;;;5.87;83.06;100863.00;5035950;28;20483;-73
2022/01/28 01:04:41;;;;;;;0.40;0.30;;;;;;;5.82;83.31;100851.16;5035978;28;20481;-73
2022/01/28 01:07:08;;;;;;;0.40;0.30;;;;;;;5.83;83.48;100876.94;5035454;28;20435;-72
2022/01/28 01:09:35;;;;;;;0.40;0.20;;;;;;;5.83;83.28;100885.00;5035800;28;20466;-72
2022/01/28 01:12:01;;;;;;;0.40;0.20;;;;;;;5.77;83.98;100878.00;5035886;28;20438;-72
2022/01/28 01:14:29;;;;;;;0.40;0.23;;;;;;;5.78;83.75;100855.44;5035699;28;20443;-71
2022/01/28 01:17:09;;;;;;;0.40;0.30;;;;;;;5.75;83.47;100887.38;5035783;28;20454;-71
2022/01/28 01:19:40;;;;;;;0.40;0.20;;;;;;;5.73;83.02;100887.66;5035682;28;20479;-72
2022/01/28 01:22:08;;;;;;;0.40;0.30;;;;;;;5.72;83.58;100896.81;5035556;28;20470;-72
2022/01/28 01:24:46;;;;;;;0.40;0.20;;;;;;;5.70;83.53;100906.97;5035550;28;20461;-72
2022/01/28 01:27:13;;;;;;;0.40;0.30;;;;;;;5.65;84.02;100906.16;5035572;28;20437;-71
2022/01/28 01:29:43;;;;;;;0.40;0.20;;;;;;;5.63;83.12;100949.41;5035350;28;20466;-71
2022/01/28 01:32:14;;;;;;;0.40;0.30;;;;;;;5.67;83.20;100944.34;5037017;28;20921;-77
2022/01/28 01:34:40;;;;;;;0.40;0.30;;;;;;;5.74;82.60;100928.78;5036638;28;20420;-77
2022/01/28 01:37:08;;;;;;;0.40;0.30;;;;;;;5.75;82.06;100939.25;5035321;28;20455;-71
2022/01/28 01:39:36;;;;;;;0.40;0.30;;;;;;;5.78;82.30;100935.25;5035181;28;20432;-70
2022/01/28 01:42:10;;;;;;;0.40;0.30;;;;;;;5.78;82.38;100944.13;5035202;28;20487;-71
2022/01/28 01:44:59;;;;;;;0.40;0.23;;;;;;;5.79;83.29;100948.41;5034931;28;20897;-71
2022/01/28 01:52:55;;;;;;;0.40;0.30;;;;;;;5.71;84.19;100953.47;5034932;28;20553;-70
2022/01/28 01:55:21;;;;;;;0.40;0.30;;;;;;;5.70;84.43;100960.72;5034983;28;20867;-70
2022/01/28 01:57:48;;;;;;;0.40;0.30;;;;;;;5.69;84.06;100956.44;5034942;28;20452;-70
2022/01/28 02:00:16;;;;;;;0.40;0.30;;;;;;;5.71;84.17;100967.75;5034852;28;20471;-70
2022/01/28 02:02:44;;;;;;;0.40;0.30;;;;;;;5.73;84.56;100962.09;5034789;28;20478;-70
2022/01/28 02:05:11;;;;;;;0.40;0.30;;;;;;;5.70;83.88;100971.47;5034527;28;20972;-70
2022/01/28 02:07:38;;;;;;;0.40;0.30;;;;;;;5.70;83.43;100987.59;5034577;28;20462;-71
2022/01/28 02:10:05;;;;;;;0.40;0.30;;;;;;;5.69;83.34;100972.56;5034701;28;20463;-70
2022/01/28 02:12:44;;;;;;;0.40;0.30;;;;;;;5.70;82.99;100978.75;5034652;28;20443;-71
2022/01/28 02:15:11;;;;;;;0.40;0.30;;;;;;;5.70;81.92;100971.47;5034310;28;20431;-71
2022/01/28 02:17:37;;;;;;;0.40;0.30;;;;;;;5.71;82.30;100993.78;5034547;28;20447;-71
2022/01/28 02:20:09;;;;;;;0.40;0.27;;;;;;;5.74;82.14;100986.03;5034139;28;20845;-71
2022/01/28 02:22:37;;;;;;;0.40;0.30;;;;;;;5.74;81.48;100999.47;5034435;28;20569;-71
2022/01/28 02:25:04;;;;;;;0.40;0.30;;;;;;;5.70;81.92;100989.50;5034104;28;20431;-70
2022/01/28 02:27:31;;;;;;;0.40;0.30;;;;;;;5.73;81.83;100997.03;5034367;28;20454;-71
2022/01/28 02:29:57;;;;;;;0.40;0.30;;;;;;;5.74;82.37;101004.84;5034304;28;20498;-71
2022/01/28 02:32:24;;;;;;;0.40;0.30;;;;;;;5.70;83.00;101000.25;5033969;28;20929;-71
2022/01/28 02:34:50;;;;;;;0.40;0.30;;;;;;;5.71;82.85;101009.91;5034250;28;20550;-71
2022/01/28 02:37:16;;;;;;;0.40;0.20;;;;;;;5.68;83.60;101005.88;5034191;28;20434;-70
2022/01/28 02:39:44;;;;;;;0.40;0.20;;;;;;;5.60;84.50;101025.16;5034076;28;20459;-71
2022/01/28 02:42:18;;;;;;;0.40;0.30;;;;;;;5.56;85.55;101016.00;5034005;28;20443;-70
2022/01/28 02:44:49;;;;;;;0.40;0.30;;;;;;;5.48;86.12;101017.25;5033827;28;20489;-71
2022/01/28 02:47:18;;;;;;;0.40;0.30;;;;;;;5.44;85.99;101020.72;5034038;28;20489;-71
2022/01/28 02:49:45;;;;;;;0.40;0.30;;;;;;;5.40;86.73;101025.81;5033569;28;20490;-70
2022/01/28 02:52:20;;;;;;;0.40;0.30;;;;;;;5.39;86.43;101018.00;5033516;28;20800;-70
2022/01/28 02:54:49;;;;;;;0.40;0.30;;;;;;;5.37;85.45;101030.88;5033869;28;20522;-71
2022/01/28 02:57:22;;;;;;;0.40;0.20;;;;;;;5.40;84.10;101036.56;5033831;28;20525;-71
2022/01/28 02:59:48;;;;;;;0.50;0.30;;;;;;;5.48;83.02;101044.13;5033741;28;20485;-71
2022/01/28 03:02:15;;;;;;;0.40;0.27;;;;;;;5.50;82.50;101042.00;5033652;28;20458;-71
2022/01/28 03:05:05;;;;;;;0.40;0.30;;;;;;;5.52;83.54;101044.44;5033357;28;20472;-70
2022/01/28 03:07:32;;;;;;;0.40;0.30;;;;;;;5.56;82.57;101043.66;5033394;28;20498;-70
2022/01/28 03:10:26;;;;;;;0.40;0.30;;;;;;;5.57;82.41;101041.78;5033241;28;20489;-72
2022/01/28 03:13:20;;;;;;;0.40;0.20;;;;;;;5.55;83.09;101052.81;5033634;28;20439;-71
2022/01/28 03:15:52;;;;;;;0.40;0.30;;;;;;;5.59;82.40;101055.00;5033599;28;20784;-71
2022/01/28 03:18:22;;;;;;;0.40;0.27;;;;;;;5.63;81.90;101073.03;5033536;28;20435;-72
2022/01/28 03:20:59;;;;;;;0.40;0.20;;;;;;;5.67;81.85;101054.53;5032910;28;20462;-72
2022/01/28 03:23:27;;;;;;;0.40;0.20;;;;;;;5.67;81.83;101068.75;5033381;28;20553;-72
2022/01/28 03:25:55;;;;;;;0.40;0.30;;;;;;;5.74;81.72;101068.53;5033489;28;20811;-71
2022/01/28 03:28:21;;;;;;;0.40;0.27;;;;;;;5.73;81.01;101056.97;5033308;28;20454;-72
2022/01/28 03:30:48;;;;;;;0.40;0.30;;;;;;;5.73;80.66;101073.09;5033247;28;20471;-71
2022/01/28 03:33:14;;;;;;;0.40;0.30;;;;;;;5.76;80.60;101086.03;5032984;28;20971;-72
2022/01/28 03:35:41;;;;;;;0.40;0.30;;;;;;;5.77;81.15;101108.34;5032991;28;20957;-72
2022/01/28 03:38:11;;;;;;;0.40;0.30;;;;;;;5.79;80.15;101098.13;5033216;28;20565;-72
2022/01/28 03:40:38;;;;;;;0.40;0.30;;;;;;;5.84;80.36;101090.09;5033183;28;20477;-72
2022/01/28 03:43:06;;;;;;;0.40;0.30;;;;;;;5.85;79.93;101097.13;5033067;28;20491;-71
2022/01/28 03:45:33;;;;;;;0.40;0.30;;;;;;;5.78;79.96;101101.91;5033271;28;20446;-71
2022/01/28 03:48:00;;;;;;;0.40;0.30;;;;;;;5.74;80.26;101111.53;5033072;28;20443;-72
2022/01/28 03:50:26;;;;;;;0.40;0.30;;;;;;;5.79;79.76;101108.88;5032604;28;20980;-71
2022/01/28 03:52:53;;;;;;;0.40;0.30;;;;;;;5.82;78.30;101111.88;5033079;28;20439;-72
2022/01/28 03:55:19;;;;;;;0.40;0.23;;;;;;;5.83;78.51;101121.56;5033069;28;20447;-72
2022/01/28 03:57:45;;;;;;;0.40;0.30;;;;;;;5.83;78.13;101134.19;5032785;28;20442;-72
2022/01/28 04:00:15;;;;;;;0.40;0.30;;;;;;;5.79;78.85;101130.41;5032944;28;20524;-73
2022/01/28 04:02:44;;;;;;;0.40;0.30;;;;;;;5.79;79.21;101131.19;5032934;28;20439;-71
2022/01/28 04:13:28;;;;;;;0.40;0.23;;;;;;;5.86;77.32;101157.88;5032792;28;20427;-72
2022/01/28 04:16:17;;;;;;;0.40;0.30;;;;;;;5.87;76.71;101158.69;5032885;28;20443;-72
2022/01/28 04:18:43;;;;;;;0.40;0.20;;;;;;;5.87;77.19;101172.13;5032853;28;20434;-72
2022/01/28 04:21:09;;;;;;;0.40;0.30;;;;;;;5.87;76.99;101174.81;5032337;28;20996;-72
2022/01/28 04:23:36;;;;;;;0.40;0.30;;;;;;;5.89;76.41;101183.44;5032736;28;20487;-71
2022/01/28 04:26:02;;;;;;;0.40;0.30;;;;;;;5.91;76.21;101197.44;5032797;28;20443;-71
2022/01/28 04:28:29;;;;;;;0.40;0.20;;;;;;;5.90;75.60;101190.44;5032741;28;20454;-71
2022/01/28 04:30:56;;;;;;;0.40;0.30;;;;;;;5.89;76.12;101195.03;5032660;28;20804;-72
2022/01/28 04:33:23;;;;;;;0.40;0.30;;;;;;;5.88;76.66;101188.00;5034886;28;20951;-71
2022/01/28 04:35:53;;;;;;;0.40;0.20;;;;;;;5.88;75.62;101197.94;5036484;28;20447;-71
2022/01/28 04:38:29;;;;;;;0.40;0.30;;;;;;;5.92;75.23;101188.34;5036379;28;20492;-71
2022/01/28 04:41:04;;;;;;;0.40;0.20;;;;;;;5.95;75.60;101214.72;5036355;28;20524;-72
2022/01/28 04:43:36;;;;;;;0.40;0.20;;;;;;;5.88;75.61;101212.19;5036393;28;20501;-72
2022/01/28 04:46:10;;;;;;;0.40;0.30;;;;;;;5.86;75.70;101225.09;5036048;28;20936;-72
2022/01/28 04:48:43;;;;;;;0.40;0.23;;;;;;;5.86;75.96;101210.84;5035965;28;20905;-72
2022/01/28 04:51:17;;;;;;;0.40;0.30;;;;;;;5.86;75.65;101232.34;5035819;28;20467;-71
2022/01/28 04:53:58;;;;;;;0.40;0.20;;;;;;;5.85;76.56;101236.13;5036218;28;20433;-72
2022/01/28 04:56:41;;;;;;;0.40;0.20;;;;;;;5.86;75.65;101235.84;5036163;28;20427;-71
2022/01/28 04:59:24;;;;;;;0.40;0.27;;;;;;;5.86;75.30;101243.09;5035839;28;20521;-71
2022/01/28 05:07:46;;;;;;;0.40;0.27;;;;;;;5.90;74.87;101260.34;5035318;28;20500;-71
2022/01/28 05:16:16;;;;;;;0.40;0.20;;;;;;;5.99;74.76;101280.38;5035595;28;20407;-72
2022/01/28 05:24:38;;;;;;;0.40;0.30;;;;;;;5.97;74.46;101290.56;5014525;28;20510;-72
2022/01/28 05:27:07;;;;;;;0.40;0.30;;;;;;;5.97;74.95;101296.75;5035196;28;20846;-72
2022/01/28 05:29:34;;;;;;;0.40;0.20;;;;;;;6.00;74.85;101303.50;5035432;28;20454;-70
2022/01/28 05:32:00;;;;;;;0.40;0.30;;;;;;;5.94;75.39;101301.84;5035405;28;20462;-70
2022/01/28 05:34:28;;;;;;;0.40;0.30;;;;;;;5.97;75.19;101310.19;5035103;28;20864;-70
2022/01/28 05:36:55;;;;;;;0.40;0.30;;;;;;;5.99;75.49;101312.66;5035441;28;20921;-70
2022/01/28 05:39:22;;;;;;;0.40;0.30;;;;;;;5.96;75.82;101319.31;5035532;28;20496;-70
2022/01/28 05:41:48;;;;;;;0.40;0.30;;;;;;;5.96;76.51;101323.91;5035344;28;20867;-70
2022/01/28 05:44:15;;;;;;;0.40;0.20;;;;;;;5.97;76.57;101328.19;5034606;28;20509;-70
2022/01/28 05:46:41;;;;;;;0.40;0.30;;;;;;;5.99;76.88;101329.59;5034524;28;20443;-70
2022/01/28 05:49:09;;;;;;;0.40;0.20;;;;;;;5.97;76.57;101336.25;5034793;28;20447;-70
2022/01/28 05:51:37;;;;;;;0.40;0.20;;;;;;;5.95;76.94;101355.34;5034665;28;20470;-71
2022/01/28 05:54:03;;;;;;;0.40;0.20;;;;;;;5.96;76.99;101342.72;5034711;28;20472;-71
2022/01/28 05:56:31;;;;;;;0.40;0.27;;;;;;;5.91;77.91;101350.69;5034790;28;20451;-71
2022/01/28 05:58:58;;;;;;;0.40;0.30;;;;;;;5.88;78.00;101349.31;5035096;28;20451;-71
2022/01/28 06:01:24;;;;;;;0.40;0.30;;;;;;;5.92;77.42;101355.03;5034977;28;20466;-71
2022/01/28 06:03:51;;;;;;;0.40;0.30;;;;;;;5.91;77.95;101364.13;5034797;28;20499;-70
2022/01/28 06:06:20;;;;;;;0.40;0.30;;;;;;;5.79;78.17;101366.94;5034540;28;20959;-71
2022/01/28 06:08:49;;;;;;;0.40;0.30;;;;;;;5.81;78.51;101386.34;5034471;28;20575;-70
2022/01/28 06:11:15;;;;;;;2.20;2.10;;;;;;;5.77;78.28;101379.84;5034720;28;20498;-69
2022/01/28 06:13:42;;;;;;;0.40;0.30;;;;;;;5.77;78.22;101391.38;5034895;28;20451;-70
2022/01/28 06:16:09;;;;;;;0.40;0.30;;;;;;;5.75;78.29;101401.56;5034663;28;20451;-70
2022/01/28 06:18:36;;;;;;;0.40;0.20;;;;;;;5.77;79.64;101406.72;5034592;28;20450;-71
2022/01/28 06:21:02;;;;;;;0.40;0.23;;;;;;;5.81;78.22;101395.22;5034455;28;20475;-71
2022/01/28 06:23:29;;;;;;;0.40;0.30;;;;;;;5.83;78.52;101425.34;5034376;28;20483;-71
2022/01/28 06:25:57;;;;;;;0.40;0.30;;;;;;;5.85;78.05;101418.91;5034497;28;20517;-70
2022/01/28 06:28:23;;;;;;;0.40;0.20;;;;;;;5.77;77.99;101417.47;5034136;28;20443;-71
2022/01/28 06:30:50;;;;;;;0.40;0.30;;;;;;;5.77;78.34;101438.97;5034271;28;20474;-72
2022/01/28 06:33:16;;;;;;;0.40;0.27;;;;;;;5.73;78.18;101432.47;5034038;28;20439;-71
2022/01/28 06:35:44;;;;;;;0.40;0.30;;;;;;;5.74;77.76;101451.00;5033830;28;20451;-71
2022/01/28 06:38:11;;;;;;;0.40;0.27;;;;;;;5.80;78.13;101443.84;5034233;28;20466;-71
2022/01/28 06:40:38;;;;;;;0.40;0.30;;;;;;;5.79;77.73;101464.53;5034017;28;21054;-71
2022/01/28 06:43:08;;;;;;;0.40;0.27;;;;;;;5.79;77.46;101458.34;5034172;28;20454;-71
2022/01/28 06:45:35;;;;;;;0.40;0.30;;;;;;;5.79;77.37;101469.91;5034096;28;20428;-71
2022/01/28 06:48:01;;;;;;;0.40;0.30;;;;;;;5.78;76.48;101473.66;5034026;28;20450;-70
2022/01/28 06:50:27;;;;;;;0.40;0.30;;;;;;;5.75;75.70;101487.56;5033976;28;20466;-71
2022/01/28 06:52:54;;;;;;;0.40;0.30;;;;;;;5.73;76.52;101486.22;5033624;28;20963;-70
2022/01/28 06:55:20;;;;;;;0.40;0.30;;;;;;;5.72;76.25;101498.84;5033202;28;20439;-71
2022/01/28 06:57:47;;;;;;;0.40;0.30;;;;;;;5.78;76.01;101499.72;5033880;28;20443;-71
2022/01/28 07:00:15;;;;;;;0.40;0.30;;;;;;;5.76;75.94;101507.22;5034242;28;20999;-77
2022/01/28 07:02:42;;;;;;;0.40;0.20;;;;;;;5.72;75.84;101506.09;5035738;28;20497;-77
2022/01/28 07:05:09;;;;;;;0.40;0.30;;;;;;;5.64;75.71;101518.06;5034948;28;20490;-77
2022/01/28 07:07:36;;;;;;;0.40;0.30;;;;;;;5.70;75.22;101527.81;5034887;28;20459;-70
2022/01/28 07:10:03;;;;;;;0.43;0.30;;;;;;;5.65;74.59;101524.25;5033553;28;20475;-70
2022/01/28 07:12:30;;;;;;;0.40;0.20;;;;;;;5.64;74.55;101520.75;5033528;28;20443;-72
2022/01/28 07:14:56;;;;;;;0.40;0.30;;;;;;;5.66;75.05;101521.31;5033510;28;20513;-69
2022/01/28 07:17:24;;;;;;;0.40;0.30;;;;;;;5.62;75.30;101536.28;5033244;28;20855;-72
2022/01/28 07:19:50;;;;;;;0.40;0.30;;;;;;;5.53;75.01;101540.44;5033432;28;20459;-71
2022/01/28 07:22:17;;;;;;;0.40;0.30;;;;;;;5.52;75.38;101554.94;5033502;28;20446;-72
2022/01/28 07:24:43;;;;;;;0.40;0.30;;;;;;;5.51;75.58;101569.44;5033376;28;20483;-72
2022/01/28 07:27:10;;;;;;;0.40;0.30;;;;;;;5.52;75.25;101566.50;5033565;28;20447;-73
2022/01/28 07:29:36;;;;;;;0.40;0.30;;;;;;;5.51;75.33;101577.50;5033386;28;20467;-72
2022/01/28 07:32:03;;;;;;;0.40;0.20;;;;;;;5.40;75.61;101573.00;5033406;28;20438;-73
2022/01/28 07:34:31;;;;;;;0.40;0.30;;;;;;;5.31;76.99;101577.94;5033301;28;20438;-73
2022/01/28 07:36:58;;;;;;;0.40;0.30;;;;;;;5.31;77.58;101586.00;5033344;28;20497;-73
2022/01/28 07:39:24;;;;;;;0.40;0.30;;;;;;;5.28;77.22;101602.63;5032886;28;20941;-73
2022/01/28 07:41:51;;;;;;;0.40;0.30;;;;;;;5.22;77.28;101599.03;5032945;28;20501;-72
2022/01/28 07:44:17;;;;;;;1.00;1.00;;;;;;;5.17;76.93;101606.97;5033093;28;20830;-73
2022/01/28 07:46:44;;;;;;;0.40;0.30;;;;;;;5.22;76.90;101608.94;5032844;28;20946;-73
2022/01/28 07:49:10;;;;;;;0.40;0.30;;;;;;;5.16;77.50;101617.97;5033095;28;20446;-72
2022/01/28 07:51:38;;;;;;;0.40;0.30;;;;;;;5.05;77.21;101620.47;5033094;28;20463;-72
2022/01/28 07:54:05;;;;;;;0.40;0.30;;;;;;;5.12;77.76;101627.53;5033078;28;20450;-73
2022/01/28 07:56:32;;;;;;;0.40;0.30;;;;;;;5.06;76.85;101627.44;5033262;28;20446;-72
2022/01/28 07:58:58;;;;;;;0.40;0.30;;;;;;;5.04;78.01;101644.84;5033174;28;20469;-73
2022/01/28 08:01:25;;;;;;;0.40;0.30;;;;;;;5.04;77.91;101659.06;5032655;28;20976;-73
2022/01/28 08:03:51;;;;;;;0.40;0.20;;;;;;;5.05;77.42;101659.91;5032850;28;20448;-73
2022/01/28 08:06:18;;;;;;;0.40;0.30;;;;;;;5.04;77.29;101660.94;5034019;28;20875;-73
2022/01/28 08:08:46;;;;;;;0.40;0.30;;;;;;;5.02;77.59;101669.25;5036948;28;20546;-73
2022/01/28 08:11:15;;;;;;;0.40;0.27;;;;;;;5.03;77.73;101675.44;5037067;28;20503;-73
2022/01/28 08:13:42;;;;;;;0.40;0.30;;;;;;;4.99;78.08;101674.28;5037086;28;20850;-73
2022/01/28 08:16:08;;;;;;;0.40;0.30;;;;;;;4.99;77.69;101679.63;5037232;28;20453;-73
2022/01/28 08:18:35;;;;;;;0.40;0.30;;;;;;;4.99;78.39;101672.41;5036943;28;20538;-73
2022/01/28 08:21:01;;;;;;;0.40;0.30;;;;;;;5.01;76.93;101681.06;5036894;28;20557;-73
2022/01/28 08:23:28;;;;;;;0.40;0.30;;;;;;;4.99;76.90;101682.31;5036911;28;20447;-73
2022/01/28 08:25:56;;;;;;;0.40;0.30;;;;;;;4.97;77.45;101692.50;5036475;28;21040;-72
2022/01/28 08:28:23;;;;;;;0.40;0.20;;;;;;;5.02;77.58;101692.59;5036461;28;20949;-73
2022/01/28 08:30:49;;;;;;;0.40;0.20;;;;;;;5.05;76.42;101711.75;5036922;28;20463;-72
2022/01/28 08:33:16;;;;;;;0.40;0.30;;;;;;;5.11;76.47;101704.59;5036868;28;20866;-73
2022/01/28 08:35:50;;;;;;;0.40;0.30;;;;;;;5.11;77.09;101709.97;5036883;28;20435;-73
2022/01/28 08:38:24;;;;;;;0.40;0.30;;;;;;;5.11;76.41;101723.41;5036677;28;20465;-73
2022/01/28 08:40:51;;;;;;;0.40;0.30;;;;;;;5.12;76.48;101727.72;5036507;28;20979;-73
2022/01/28 08:43:19;;;;;;;0.40;0.20;;;;;;;5.19;75.83;101733.78;5036280;28;20820;-73
2022/01/28 08:45:46;;;;;;;0.40;0.30;;;;;;;5.20;75.52;101740.78;5036461;28;20860;-73
2022/01/28 08:48:13;;;;;;;0.40;0.30;;;;;;;5.16;75.80;101745.00;5036852;28;20446;-73
2022/01/28 08:50:39;;;;;;;0.40;0.30;;;;;;;5.20;76.06;101758.78;5036320;28;20848;-73
2022/01/28 08:53:06;;;;;;;0.40;0.20;;;;;;;5.24;75.23;101758.06;5036560;28;20446;-78
2022/01/28 08:55:33;;;;;;;0.40;0.30;;;;;;;5.22;75.48;101760.19;5036683;28;20971;-74
2022/01/28 08:57:59;;;;;;;0.40;0.30;;;;;;;5.30;75.15;101770.53;5035884;28;20836;-76
2022/01/28 09:00:27;;;;;;;0.40;0.30;;;;;;;5.35;74.61;101774.38;5036007;28;20459;-72
2022/01/28 09:02:53;;;;;;;0.40;0.30;;;;;;;5.42;74.28;101772.41;5036114;28;20443;-70
2022/01/28 09:05:20;;;;;;;0.40;0.30;;;;;;;5.43;74.75;101771.34;5035889;28;20486;-70
2022/01/28 09:07:48;;;;;;;0.40;0.30;;;;;;;5.46;74.33;101779.75;5035962;28;20462;-71
2022/01/28 09:10:19;;;;;;;0.40;0.27;;;;;;;5.48;73.69;101793.75;5035623;28;20467;-71
2022/01/28 09:13:09;;;;;;;0.40;0.20;;;;;;;5.49;73.73;101790.03;5035913;28;20485;-70
2022/01/28 09:15:40;;;;;;;0.40;0.30;;;;;;;5.45;74.77;101806.88;5035424;28;20465;-71
2022/01/28 09:18:07;;;;;;;0.40;0.20;;;;;;;5.49;74.07;101797.25;5034918;28;20442;-71
2022/01/28 09:20:35;;;;;;;0.40;0.30;;;;;;;5.60;73.71;101804.47;5035308;28;21004;-70
2022/01/28 09:23:02;;;;;;;0.40;0.30;;;;;;;5.67;73.26;101799.81;5035624;28;20454;-71
2022/01/28 09:25:29;;;;;;;0.40;0.30;;;;;;;5.71;72.39;101809.03;5035594;28;20479;-70
2022/01/28 09:27:56;;;;;;;0.40;0.30;;;;;;;5.71;72.74;101810.88;5035284;28;20851;-71
2022/01/28 09:30:22;;;;;;;0.40;0.20;;;;;;;5.72;72.90;101818.72;5035433;28;20980;-69
2022/01/28 09:32:50;;;;;;;0.40;0.30;;;;;;;5.59;72.30;101816.28;5035107;28;20957;-71
2022/01/28 09:35:17;;;;;;;0.40;0.30;;;;;;;5.56;73.52;101820.25;5035469;28;20449;-72
2022/01/28 09:37:44;;;;;;;0.40;0.30;;;;;;;5.55;72.58;101829.38;5035640;28;20807;-71
2022/01/28 09:40:12;;;;;;;0.40;0.30;;;;;;;5.55;73.13;101831.25;5034918;28;20980;-71
2022/01/28 09:42:42;;;;;;;0.40;0.30;;;;;;;5.65;73.44;101827.97;5035304;28;20443;-72
2022/01/28 09:45:10;;;;;;;0.40;0.30;;;;;;;5.70;71.94;101831.56;5035171;28;20497;-72
2022/01/28 09:47:36;;;;;;;0.40;0.30;;;;;;;5.72;72.03;101855.53;5035242;28;20447;-71
2022/01/28 09:50:07;;;;;;;0.40;0.30;;;;;;;5.78;71.78;101874.22;5035068;28;20467;-71
2022/01/28 09:52:34;;;;;;;0.40;0.20;;;;;;;5.71;71.01;101854.72;5035236;28;20435;-71
2022/01/28 09:55:00;;;;;;;0.40;0.20;;;;;;;5.73;71.51;101863.34;5034802;28;20971;-72
2022/01/28 09:57:27;;;;;;;0.40;0.30;;;;;;;5.81;70.43;101876.44;5035138;28;20458;-71
2022/01/28 09:59:54;;;;;;;2.10;2.00;;;;;;;5.85;70.13;101873.28;5035045;28;20494;-71
2022/01/28 10:02:20;;;;;;;0.40;0.30;;;;;;;5.87;69.88;101874.66;5034555;28;20949;-71
2022/01/28 10:04:47;;;;;;;0.40;0.20;;;;;;;5.85;70.32;101875.97;5034562;28;21063;-72
2022/01/28 10:07:17;;;;;;;0.40;0.30;;;;;;;5.86;70.55;101878.41;5034401;28;20937;-72
2022/01/28 10:09:55;;;;;;;0.40;0.20;;;;;;;5.95;70.85;101893.16;5034783;28;20475;-73
2022/01/28 10:12:29;;;;;;;0.40;0.30;;;;;;;6.02;70.74;101898.38;5034797;28;20465;-72
2022/01/28 10:15:03;;;;;;;0.40;0.30;;;;;;;5.98;70.58;101906.13;5034774;28;20434;-72
2022/01/28 10:17:51;;;;;;;0.40;0.27;;;;;;;5.99;70.44;101904.25;5034766;28;20423;-71
2022/01/28 10:20:18;;;;;;;0.40;0.30;;;;;;;6.04;70.80;101915.94;5034629;28;20525;-71
2022/01/28 10:22:51;;;;;;;0.40;0.20;;;;;;;6.04;70.09;101918.63;5034572;28;20431;-70
2022/01/28 10:25:25;;;;;;;0.40;0.30;;;;;;;6.06;69.48;101921.06;5034489;28;21008;-70
2022/01/28 10:28:00;;;;;;;0.40;0.20;;;;;;;6.09;69.69;101912.53;5034429;28;20450;-72
2022/01/28 10:30:27;;;;;;;0.40;0.30;;;;;;;6.06;70.08;101908.44;5034330;28;20469;-72
2022/01/28 10:33:15;;;;;;;0.40;0.30;;;;;;;6.30;69.78;101914.56;5034386;28;20474;-71
2022/01/28 10:35:50;;;;;;;0.40;0.30;;;;;;;6.43;68.22;101923.41;5031106;28;20550;-71
2022/01/28 10:38:30;;;;;;;0.40;0.20;;;;;;;6.37;69.75;101921.66;5034439;28;20438;-72
2022/01/28 10:41:14;;;;;;;0.40;0.20;;;;;;;6.27;70.19;101928.47;5033959;28;20467;-71
2022/01/28 10:43:45;;;;;;;0.40;0.30;;;;;;;6.36;70.43;101933.50;5033841;28;20470;-71
2022/01/28 10:46:12;;;;;;;0.40;0.30;;;;;;;6.44;70.37;101927.75;5030373;28;20483;-70
2022/01/28 10:48:49;;;;;;;0.40;0.30;;;;;;;6.52;69.59;101940.81;5034094;28;20460;-71
2022/01/28 10:51:16;;;;;;;0.40;0.30;;;;;;;6.46;69.57;101941.75;5033938;28;20498;-71
2022/01/28 10:54:02;;;;;;;0.40;0.30;;;;;;;6.29;69.98;101937.16;5033967;28;20439;-71
2022/01/28 10:56:29;;;;;;;0.40;0.30;;;;;;;6.30;70.62;101936.09;5033760;28;20419;-71
2022/01/28 10:58:57;;;;;;;0.40;0.30;;;;;;;6.31;70.75;101937.72;5034014;28;20797;-71
2022/01/28 11:01:25;;;;;;;0.40;0.30;;;;;;;6.33;70.05;101953.66;5033934;28;20550;-71
2022/01/28 11:03:54;;;;;;;0.40;0.30;;;;;;;6.37;71.03;101944.00;5034029;28;20451;-71
2022/01/28 11:06:21;;;;;;;0.60;0.60;;;;;;;6.49;70.83;101941.28;5033809;28;20482;-71
2022/01/28 11:08:49;;;;;;;0.40;0.30;;;;;;;6.60;70.26;101937.75;5033726;28;20463;-71
2022/01/28 11:11:16;;;;;;;0.40;0.30;;;;;;;6.65;69.93;101948.59;5033636;28;20466;-71
2022/01/28 11:13:43;;;;;;;0.40;0.30;;;;;;;6.71;70.36;101944.94;5033704;28;20452;-71
2022/01/28 11:16:10;;;;;;;0.40;0.30;;;;;;;6.82;68.89;101956.72;5033619;28;20446;-71
2022/01/28 11:18:37;;;;;;;0.40;0.30;;;;;;;6.71;68.45;101958.41;5030285;28;20470;-71
2022/01/28 11:21:10;;;;;;;0.40;0.30;;;;;;;6.78;68.81;101961.78;5033593;28;20463;-71
2022/01/28 11:23:50;;;;;;;0.40;0.20;;;;;;;6.85;67.63;101969.69;5034864;28;20423;-71
2022/01/28 11:26:23;;;;;;;0.40;0.30;;;;;;;6.92;68.25;101988.41;5033284;28;20565;-72
2022/01/28 11:28:54;;;;;;;0.40;0.30;;;;;;;6.94;67.13;101981.69;5033480;28;20485;-71
2022/01/28 11:31:43;;;;;;;0.83;0.83;;;;;;;6.93;68.09;101990.03;5033358;28;20462;-71
2022/01/28 11:34:16;;;;;;;0.40;0.30;;;;;;;6.92;67.83;101993.78;5033337;28;20434;-71
2022/01/28 11:36:42;;;;;;;0.40;0.30;;;;;;;6.83;68.16;102012.22;5033358;28;20465;-71
2022/01/28 11:39:20;;;;;;;0.40;0.30;;;;;;;6.66;68.60;102012.16;5033305;28;20439;-71
2022/01/28 11:42:02;;;;;;;0.40;0.30;;;;;;;6.58;69.24;102026.00;5032669;28;20435;-71
2022/01/28 11:44:52;;;;;;;0.40;0.30;;;;;;;6.53;69.81;102015.13;5033083;28;20427;-71
2022/01/28 11:47:24;;;;;;;0.40;0.30;;;;;;;6.62;69.32;102016.38;5033173;28;20431;-71
2022/01/28 11:49:59;;;;;;;0.40;0.30;;;;;;;6.70;69.25;102024.09;5032972;28;20459;-71
2022/01/28 11:52:29;;;;;;;0.40;0.30;;;;;;;6.71;69.44;102012.25;5033282;28;20447;-71
2022/01/28 11:54:56;;;;;;;0.40;0.30;;;;;;;6.61;70.19;102019.31;5014529;28;20480;-73
2022/01/28 11:57:27;;;;;;;0.40;0.30;;;;;;;6.67;69.64;102012.97;5019755;28;20447;-74
2022/01/28 12:00:22;;;;;;;0.40;0.30;;;;;;;6.79;70.08;102008.38;5021184;28;20464;-76
2022/01/28 12:02:50;;;;;;;0.40;0.30;;;;;;;6.82;70.09;102006.00;5017567;28;20428;-74
2022/01/28 12:05:51;;;;;;;0.40;0.30;;;;;;;6.89;69.46;102013.94;5022398;28;20488;-74
2022/01/28 12:08:19;;;;;;;0.40;0.20;;;;;;;7.19;68.17;102018.25;5022002;28;20952;-74
2022/01/28 12:10:49;;;;;;;0.40;0.30;;;;;;;7.05;67.07;102006.97;5020613;28;20985;-74
2022/01/28 12:13:18;;;;;;;0.40;0.30;;;;;;;7.42;66.79;102023.50;5021550;28;20439;-74
2022/01/28 12:16:04;;;;;;;0.40;0.30;;;;;;;7.78;65.79;102030.25;5022921;28;20443;-73
2022/01/28 12:18:54;;;;;;;0.40;0.30;;;;;;;8.55;64.84;102036.78;5020367;28;20435;-74
2022/01/28 12:21:23;;;;;;;0.40;0.30;;;;;;;8.52;61.54;102035.38;5023596;28;21043;-74
2022/01/28 12:23:50;;;;;;;0.40;0.30;;;;;;;8.37;62.08;102043.31;5021400;28;20440;-74
2022/01/28 12:26:19;;;;;;;0.40;0.30;;;;;;;8.28;63.14;102050.16;5020805;28;20483;-73
2022/01/28 12:28:55;;;;;;;0.40;0.30;;;;;;;8.18;62.79;102050.81;5022702;28;20451;-74
2022/01/28 12:31:28;;;;;;;0.40;0.30;;;;;;;8.07;63.30;102049.88;5022383;28;20463;-74
2022/01/28 12:33:56;;;;;;;0.40;0.30;;;;;;;7.86;63.97;102044.41;5022016;28;20467;-74
2022/01/28 12:36:25;;;;;;;0.40;0.30;;;;;;;8.03;63.29;102047.91;5019996;28;20920;-73